This is the latest recevied weather packets stored in our database for station/object OK2ZAW-21. If no packets are shown the sender has not sent any weather packets the latest 10 day(s).
| Time | Temp. | Humidity | Pressure | Rain* | Wind** | Luminosity | Snow |
|---|---|---|---|---|---|---|---|
| 1787905255 | 21.11° C | 67% | 1019 hPa | - | - | 423 W/m² | - |
| 1787904632 | 20.56° C | 69% | 1019.1 hPa | - | - | 422 W/m² | - |
| 1787904321 | 20.56° C | 68% | 1019.2 hPa | - | - | 422 W/m² | - |
| 1787904010 | 21.11° C | 67% | 1019.3 hPa | - | - | 421 W/m² | - |
| 1787903699 | 21.11° C | 67% | 1019.5 hPa | - | - | 422 W/m² | - |
| 1787903387 | 21.11° C | 67% | 1019.4 hPa | - | - | 421 W/m² | - |
| 1787903076 | 21.11° C | 66% | 1019.3 hPa | - | - | 422 W/m² | - |
| 1787902765 | 21.11° C | 68% | 1019.6 hPa | - | - | 421 W/m² | - |
| 1787902453 | 20.56° C | 70% | 1019.6 hPa | - | - | 421 W/m² | - |
| 1787902142 | 20.56° C | 71% | 1019.7 hPa | - | - | 421 W/m² | - |
| 1787901520 | 20° C | 74% | 1019.6 hPa | - | - | 421 W/m² | - |
| 1787901209 | 20° C | 74% | 1019.9 hPa | - | - | 421 W/m² | - |
| 1787900898 | 19.44° C | 76% | 1019.9 hPa | - | - | 420 W/m² | - |
| 1787900586 | 19.44° C | 78% | 1019.7 hPa | - | - | 420 W/m² | - |
| 1787900275 | 18.89° C | 79% | 1019.7 hPa | - | - | 420 W/m² | - |
| 1787899964 | 18.89° C | 79% | 1019.9 hPa | - | - | 420 W/m² | - |
| 1787899653 | 18.89° C | 80% | 1019.8 hPa | - | - | 420 W/m² | - |
| 1787899342 | 18.89° C | 80% | 1019.9 hPa | - | - | 420 W/m² | - |
| 1787899031 | 18.89° C | 82% | 1019.8 hPa | - | - | 420 W/m² | - |
| 1787898720 | 18.89° C | 84% | 1019.8 hPa | - | - | 420 W/m² | - |
| 1787898409 | 18.33° C | 86% | 1019.8 hPa | - | - | 420 W/m² | - |
| 1787897787 | 17.78° C | 91% | 1019.6 hPa | - | - | 420 W/m² | - |
| 1787897476 | 17.22° C | 95% | 1019.7 hPa | - | - | 419 W/m² | - |
| 1787897166 | 16.67° C | 98% | 1019.5 hPa | - | - | 419 W/m² | - |
| 1787896855 | 16.11° C | 10% | - | - | - | - | - |
* Rain since midnight (hover to see other rain measurements)
** Current wind speed in m/s (hover to see current wind gust speed)